Terminal Aerodrome Forecast
Issued by NWS Duluth, MN

Home | Current Version | Previous Version | Text Only | Print | Product List | Glossary On
Versions: 1 2 3 4 5 6 7 8 9 10 11 12 13 14 15 16 17
988
FTUS43 KDLH 292320
TAFDLH
TAF
KDLH 292320Z 3000/3024 08008KT P6SM OVC120
     FM300600 08005KT P6SM BKN070
     FM301100 08005KT 4SM BR BKN010
     FM301400 09007KT P6SM SCT060
     FM301900 08011G19KT P6SM FEW130=

USA.gov is the U.S. government's official web portal to all federal, state and local government web resources and services.